Data for 12/16/2008

Time Sea-Level Adjusted Pressure Absolute Pressure Temperature Relative Humidity Dew Point   
(mb) (inHg) (mb) (inHg) (C) (F) (%) (C) (F)
00:05 1014 29.94 843 24.89 -25.4 -13.7 77 -28.3 -18.9
00:10 1014 29.94 843 24.89 -25.4 -13.7 77 -28.3 -19
00:15 1014 29.94 843 24.89 -25.4 -13.8 77 -28.3 -19
00:20 1014 29.94 843 24.89 -25.6 -14 77 -28.5 -19.3
00:25 1014 29.94 843 24.89 -25.6 -14.1 76 -28.7 -19.6
00:30 1014 29.94 843 24.89 -25.6 -14.1 77 -28.5 -19.3
00:35 1013 29.91 843 24.89 -25.6 -14 78 -28.4 -19.1
00:40 1013 29.91 843 24.89 -25.7 -14.2 78 -28.5 -19.3
00:45 1013 29.91 843 24.89 -25.9 -14.7 78 -28.7 -19.6
00:50 1013 29.91 843 24.89 -26 -14.9 78 -28.8 -19.9
00:55 1013 29.91 842 24.86 -26.1 -14.9 77 -29 -20.1
01:00 1013 29.91 842 24.86 -26.1 -15 77 -29 -20.2
01:05 1013 29.91 842 24.86 -26.1 -14.9 76 -29.2 -20.5
01:10 1013 29.91 842 24.86 -26.2 -15.1 76 -29.3 -20.7
01:15 1013 29.91 842 24.86 -26.3 -15.3 76 -29.4 -20.9
01:20 1013 29.91 842 24.86 -26.4 -15.5 77 -29.3 -20.8
01:25 1013 29.91 842 24.86 -26.5 -15.6 78 -29.2 -20.5
01:30 1013 29.91 842 24.86 -26.5 -15.7 78 -29.3 -20.7
01:35 1013 29.91 842 24.86 -26.7 -16 78 -29.4 -21
01:40 1013 29.91 842 24.86 -26.8 -16.2 79 -29.4 -20.9
01:45 1013 29.91 842 24.86 -26.7 -16.1 79 -29.3 -20.8
01:50 1013 29.91 842 24.86 -26.8 -16.2 79 -29.4 -20.9
01:55 1013 29.91 842 24.86 -26.8 -16.2 79 -29.4 -20.9
02:00 1013 29.91 842 24.86 -26.7 -16 79 -29.3 -20.7
02:05 1013 29.91 842 24.86 -26.7 -16.1 79 -29.4 -20.9
02:10 1013 29.91 842 24.86 -26.7 -16.1 79 -29.4 -21
02:15 1013 29.91 842 24.86 -26.8 -16.2 78 -29.5 -21
02:20 1013 29.91 842 24.86 -26.9 -16.3 78 -29.6 -21.3
02:25 1013 29.91 842 24.86 -26.9 -16.4 78 -29.6 -21.3
02:30 1013 29.91 842 24.86 -26.9 -16.4 78 -29.6 -21.3
02:35 1012 29.88 842 24.86 -26.8 -16.3 77 -29.7 -21.5
02:40 1012 29.88 842 24.86 -26.8 -16.3 77 -29.7 -21.5
02:45 1012 29.88 842 24.86 -26.7 -16 77 -29.6 -21.2
02:50 1012 29.88 842 24.86 -26.7 -16 77 -29.6 -21.3
02:55 1012 29.88 842 24.86 -26.7 -16 76 -29.7 -21.4
03:00 1012 29.88 842 24.86 -26.7 -16.1 76 -29.7 -21.5
03:05 1012 29.88 842 24.86 -26.8 -16.2 77 -29.7 -21.5
03:10 1012 29.88 841 24.83 -26.8 -16.3 77 -29.8 -21.6
03:15 1012 29.88 841 24.83 -26.8 -16.3 76 -29.8 -21.7
03:20 1012 29.88 841 24.83 -26.9 -16.3 77 -29.8 -21.6
03:25 1012 29.88 841 24.83 -26.9 -16.4 77 -29.8 -21.7
03:30 1012 29.88 841 24.83 -26.9 -16.4 77 -29.8 -21.6
03:35 1012 29.88 841 24.83 -27 -16.6 76 -30 -22
03:40 1012 29.88 841 24.83 -27.2 -16.9 76 -30.2 -22.3
03:45 1012 29.88 841 24.83 -27.1 -16.7 76 -30.1 -22.1
03:50 1012 29.88 841 24.83 -26.9 -16.5 76 -30 -22
03:55 1012 29.88 841 24.83 -26.9 -16.4 75 -30.1 -22.2
04:00 1012 29.88 841 24.83 -26.8 -16.2 75 -30 -22
04:05 1012 29.88 841 24.83 -26.7 -16.1 75 -30 -21.9
04:10 1012 29.88 841 24.83 -26.7 -16 74 -30 -22
04:15 1012 29.88 841 24.83 -26.7 -16 75 -29.9 -21.9
04:20 1012 29.88 841 24.83 -26.8 -16.3 74 -30.1 -22.2
04:25 1012 29.88 841 24.83 -27 -16.6 75 -30.2 -22.4
04:30 1012 29.88 841 24.83 -27 -16.7 74 -30.4 -22.7
04:35 1012 29.88 841 24.83 -27.2 -16.9 74 -30.5 -22.9
04:40 1012 29.88 841 24.83 -27.3 -17.1 74 -30.6 -23.1
04:45 1012 29.88 841 24.83 -27.3 -17.1 75 -30.4 -22.8
04:50 1012 29.88 841 24.83 -27.1 -16.8 76 -30.2 -22.3
04:55 1012 29.88 841 24.83 -27 -16.6 75 -30.2 -22.4
05:00 1012 29.88 841 24.83 -26.9 -16.5 75 -30.1 -22.3
05:05 1012 29.88 841 24.83 -27 -16.5 74 -30.3 -22.6
05:10 1012 29.88 841 24.83 -26.9 -16.5 75 -30.1 -22.2
05:15 1012 29.88 841 24.83 -26.9 -16.4 73 -30.3 -22.6
05:20 1011 29.85 841 24.83 -26.9 -16.3 75 -30.1 -22.2
05:25 1011 29.85 841 24.83 -26.9 -16.4 73 -30.4 -22.7
05:30 1011 29.85 841 24.83 -26.9 -16.4 75 -30.1 -22.2
05:35 1011 29.85 841 24.83 -26.7 -16 75 -29.8 -21.7
05:40 1011 29.85 841 24.83 -26.7 -16 75 -29.9 -21.8
05:45 1011 29.85 841 24.83 -26.6 -15.9 75 -29.8 -21.6
05:50 1011 29.85 841 24.83 -26.6 -15.9 73 -30.1 -22.1
05:55 1011 29.85 841 24.83 -26.7 -16.1 73 -30.2 -22.4
06:00 1011 29.85 841 24.83 -26.9 -16.3 74 -30.2 -22.3
06:05 1012 29.88 841 24.83 -26.9 -16.5 75 -30.1 -22.2
06:10 1012 29.88 841 24.83 -26.9 -16.4 75 -30 -22
06:15 1012 29.88 841 24.83 -26.9 -16.3 76 -29.9 -21.8
06:20 1012 29.88 841 24.83 -26.9 -16.3 76 -29.9 -21.9
06:25 1012 29.88 841 24.83 -26.9 -16.3 76 -30 -21.9
06:30 1012 29.88 841 24.83 -27 -16.6 76 -30.1 -22.2
06:35 1012 29.88 841 24.83 -27.3 -17.1 77 -30.2 -22.4
06:40 1012 29.88 841 24.83 -27.5 -17.4 77 -30.3 -22.6
06:45 1012 29.88 841 24.83 -27.5 -17.4 78 -30.2 -22.3
06:50 1012 29.88 841 24.83 -27.4 -17.3 79 -30 -22
06:55 1012 29.88 841 24.83 -27.4 -17.3 78 -30.1 -22.1
07:00 1012 29.88 841 24.83 -27.4 -17.4 78 -30.2 -22.4
07:05 1012 29.88 841 24.83 -27.3 -17.2 78 -30 -22.1
07:10 1012 29.88 841 24.83 -27.1 -16.8 78 -29.8 -21.7
07:15 1012 29.88 841 24.83 -27.2 -17 77 -30.1 -22.1
07:20 1012 29.88 841 24.83 -27.3 -17.2 77 -30.2 -22.3
07:25 1012 29.88 841 24.83 -27.3 -17.2 77 -30.3 -22.5
07:30 1012 29.88 841 24.83 -27.3 -17.1 77 -30.2 -22.4
07:35 1012 29.88 841 24.83 -27.2 -16.9 77 -30.1 -22.2
07:40 1012 29.88 841 24.83 -27.2 -17 77 -30.1 -22.1
07:45 1012 29.88 841 24.83 -27.3 -17.2 76 -30.3 -22.6
07:50 1012 29.88 841 24.83 -27.5 -17.6 77 -30.4 -22.7
07:55 1012 29.88 841 24.83 -27.7 -17.8 77 -30.5 -22.9
08:00 1012 29.88 841 24.83 -27.6 -17.7 77 -30.5 -22.8
08:05 1012 29.88 841 24.83 -27.5 -17.6 78 -30.2 -22.4
08:10 1012 29.88 841 24.83 -27.5 -17.5 78 -30.3 -22.5
08:15 1012 29.88 841 24.83 -27.5 -17.4 77 -30.3 -22.5
08:20 1012 29.88 841 24.83 -27.4 -17.3 76 -30.3 -22.6
08:25 1012 29.88 841 24.83 -27.2 -17 76 -30.2 -22.4
08:30 1012 29.88 841 24.83 -26.9 -16.5 76 -30 -22
08:35 1012 29.88 841 24.83 -26.5 -15.6 75 -29.7 -21.5
08:40 1012 29.88 841 24.83 -26.2 -15.2 74 -29.6 -21.2
08:45 1012 29.88 841 24.83 -25.9 -14.6 73 -29.4 -21
08:50 1012 29.88 841 24.83 -25.7 -14.3 73 -29.3 -20.7
08:55 1012 29.88 841 24.83 -25.3 -13.5 71 -29.1 -20.3
09:00 1012 29.88 841 24.83 -24.6 -12.4 68 -28.9 -20.1
09:05 1012 29.88 841 24.83 -24.3 -11.7 67 -28.7 -19.7
09:10 1012 29.88 841 24.83 -24.1 -11.4 67 -28.6 -19.5
09:15 1012 29.88 841 24.83 -23.8 -10.8 66 -28.4 -19.2
09:20 1012 29.88 841 24.83 -22.9 -9.3 64 -28 -18.5
09:25 1012 29.88 841 24.83 -22.6 -8.6 60 -28.3 -18.9
09:30 1012 29.88 841 24.83 -22.3 -8.2 62 -27.7 -17.9
09:35 1012 29.88 841 24.83 -21.9 -7.5 61 -27.6 -17.7
09:40 1012 29.88 841 24.83 -21.6 -6.9 59 -27.6 -17.7
09:45 1012 29.88 841 24.83 -22.1 -7.8 60 -27.9 -18.2
09:50 1012 29.88 842 24.86 -22.3 -8.1 59 -28.3 -18.9
09:55 1012 29.88 842 24.86 -22.5 -8.5 59 -28.4 -19.2
10:00 1012 29.88 842 24.86 -22.8 -9 60 -28.6 -19.5
10:05 1012 29.88 842 24.86 -22.7 -8.9 59 -28.7 -19.6
10:10 1012 29.88 842 24.86 -22.3 -8.2 60 -28.2 -18.8
10:15 1012 29.88 842 24.86 -21.7 -7 57 -28 -18.4
10:20 1013 29.91 842 24.86 -21.9 -7.4 57 -28.3 -19
10:25 1013 29.91 842 24.86 -22.7 -8.9 60 -28.5 -19.3
10:30 1013 29.91 842 24.86 -22.8 -9.1 60 -28.6 -19.5
10:35 1013 29.91 842 24.86 -22.6 -8.7 61 -28.2 -18.8
10:40 1013 29.91 842 24.86 -22.4 -8.2 62 -27.8 -18.1
10:45 1013 29.91 842 24.86 -22.2 -7.9 61 -27.8 -18.1
10:50 1013 29.91 842 24.86 -22.4 -8.3 61 -27.9 -18.2
10:55 1013 29.91 842 24.86 -21.8 -7.3 60 -27.7 -17.9
11:00 1013 29.91 842 24.86 -22 -7.6 60 -27.7 -17.9
11:05 1013 29.91 842 24.86 -22.8 -9 62 -28.1 -18.7
11:10 1013 29.91 842 24.86 -22.9 -9.2 62 -28.3 -19
11:15 1013 29.91 842 24.86 -22.7 -8.9 62 -28.1 -18.6
11:20 1013 29.91 842 24.86 -22.7 -8.9 62 -28.2 -18.7
11:25 1013 29.91 842 24.86 -22.4 -8.4 60 -28.3 -19
11:30 1013 29.91 842 24.86 -22.4 -8.2 60 -28.2 -18.8
11:35 1013 29.91 842 24.86 -22.1 -7.7 58 -28.1 -18.7
11:40 1013 29.91 842 24.86 -22 -7.6 58 -28.1 -18.6
11:45 1013 29.91 842 24.86 -21.7 -7.1 58 -27.9 -18.3
11:50 1013 29.91 842 24.86 -21.1 -5.9 56 -27.6 -17.7
11:55 1013 29.91 842 24.86 -20.8 -5.4 58 -27.1 -16.8
12:00 1013 29.91 842 24.86 -20.5 -4.9 56 -27.1 -16.7
12:05 1013 29.91 842 24.86 -20.5 -4.8 56 -27.1 -16.7
12:10 1013 29.91 842 24.86 -19.9 -3.9 54 -27 -16.6
12:15 1013 29.91 842 24.86 -19.7 -3.5 54 -26.8 -16.3
12:20 1013 29.91 842 24.86 -19.5 -3.2 52 -27 -16.7
12:25 1013 29.91 842 24.86 -19.3 -2.7 51 -27.1 -16.7
12:30 1013 29.91 842 24.86 -18.8 -1.8 51 -26.6 -15.9
12:35 1013 29.91 842 24.86 -19.4 -2.9 54 -26.6 -15.8
12:40 1013 29.91 842 24.86 -20 -4 56 -26.7 -16.1
12:45 1013 29.91 842 24.86 -19.6 -3.4 54 -26.7 -16.1
12:50 1013 29.91 842 24.86 -19.7 -3.4 53 -27 -16.5
12:55 1013 29.91 842 24.86 -19.6 -3.3 54 -26.7 -16.1
13:00 1013 29.91 842 24.86 -19.4 -3 54 -26.6 -15.9
13:05 1013 29.91 842 24.86 -19.2 -2.6 52 -26.8 -16.3
13:10 1013 29.91 842 24.86 -19 -2.2 52 -26.5 -15.7
13:15 1013 29.91 842 24.86 -18.9 -2 54 -26.1 -15.1
13:20 1013 29.91 842 24.86 -18.6 -1.4 50 -26.6 -15.8
13:25 1013 29.91 842 24.86 -19.8 -3.6 56 -26.5 -15.6
13:30 1013 29.91 842 24.86 -19.1 -2.4 53 -26.5 -15.6
13:35 1013 29.91 842 24.86 -18.1 -0.6 50 -26.1 -15
13:40 1013 29.91 842 24.86 -17.5 0.5 49 -25.8 -14.5
13:45 1013 29.91 842 24.86 -17.9 -0.2 50 -26.1 -14.9
13:50 1013 29.91 842 24.86 -18 -0.4 49 -26.2 -15.2
13:55 1013 29.91 842 24.86 -17.4 0.6 48 -26 -14.9
14:00 1013 29.91 842 24.86 -17.8 0.1 49 -26 -14.9
14:05 1013 29.91 842 24.86 -18.9 -2.1 53 -26.3 -15.3
14:10 1013 29.91 842 24.86 -18.9 -2 53 -26.2 -15.2
14:15 1013 29.91 842 24.86 -19.5 -3.2 53 -26.9 -16.4
14:20 1013 29.91 842 24.86 -18.9 -2.1 53 -26.4 -15.5
14:25 1013 29.91 842 24.86 -19 -2.2 52 -26.6 -15.8
14:30 1013 29.91 842 24.86 -19.1 -2.4 53 -26.5 -15.7
14:35 1013 29.91 842 24.86 -18.8 -1.8 52 -26.3 -15.4
14:40 1013 29.91 842 24.86 -17.8 -0 50 -25.9 -14.6
14:45 1013 29.91 842 24.86 -17.5 0.6 51 -25.4 -13.8
14:50 1013 29.91 842 24.86 -17.6 0.3 50 -25.7 -14.2
14:55 1013 29.91 842 24.86 -17.6 0.4 50 -25.6 -14.1
15:00 1013 29.91 842 24.86 -17.5 0.4 50 -25.6 -14
15:05 1013 29.91 842 24.86 -17.7 0.2 51 -25.6 -14
15:10 1013 29.91 842 24.86 -17.5 0.5 51 -25.4 -13.7
15:15 1013 29.91 842 24.86 -17.4 0.7 50 -25.6 -14
15:20 1013 29.91 842 24.86 -17.6 0.3 51 -25.4 -13.7
15:25 1013 29.91 842 24.86 -17.6 0.3 51 -25.5 -14
15:30 1013 29.91 842 24.86 -17.5 0.5 50 -25.5 -13.9
15:35 1013 29.91 842 24.86 -17.8 -0 52 -25.4 -13.8
15:40 1013 29.91 842 24.86 -17.8 0.1 52 -25.3 -13.5
15:45 1013 29.91 842 24.86 -18 -0.3 53 -25.3 -13.6
15:50 1013 29.91 842 24.86 -17.8 -0 51 -25.6 -14.2
15:55 1013 29.91 842 24.86 -18.1 -0.5 53 -25.5 -14
16:00 1013 29.91 842 24.86 -18.9 -2 56 -25.6 -14.2
16:05 1013 29.91 842 24.86 -19.8 -3.6 56 -26.5 -15.6
16:10 1013 29.91 842 24.86 -20.4 -4.8 59 -26.6 -15.9
16:15 1013 29.91 842 24.86 -20.4 -4.7 60 -26.3 -15.4
16:20 1013 29.91 842 24.86 -20.1 -4.2 60 -26 -14.8
16:25 1013 29.91 842 24.86 -20 -4 59 -26.1 -14.9
16:30 1013 29.91 842 24.86 -20 -4 59 -26 -14.8
16:35 1013 29.91 842 24.86 -20.2 -4.4 62 -25.7 -14.3
16:40 1012 29.88 842 24.86 -20.4 -4.7 63 -25.8 -14.4
16:45 1012 29.88 842 24.86 -20.6 -5.1 64 -25.8 -14.5
16:50 1012 29.88 842 24.86 -20.7 -5.2 64 -25.8 -14.5
16:55 1012 29.88 842 24.86 -20.7 -5.2 64 -25.8 -14.5
17:00 1012 29.88 842 24.86 -20.7 -5.2 64 -25.8 -14.4
17:05 1012 29.88 842 24.86 -20.7 -5.2 65 -25.7 -14.3
17:10 1012 29.88 842 24.86 -20.7 -5.3 63 -26 -14.8
17:15 1012 29.88 842 24.86 -21.2 -6.2 66 -26.1 -14.9
17:20 1012 29.88 842 24.86 -21.1 -6 64 -26.3 -15.4
17:25 1012 29.88 842 24.86 -21.4 -6.5 65 -26.3 -15.4
17:30 1012 29.88 841 24.83 -21.7 -7.1 67 -26.3 -15.3
17:35 1012 29.88 841 24.83 -22 -7.6 68 -26.4 -15.5
17:40 1012 29.88 841 24.83 -22.1 -7.7 69 -26.3 -15.3
17:45 1012 29.88 841 24.83 -22.1 -7.8 69 -26.4 -15.5
17:50 1012 29.88 841 24.83 -22.6 -8.7 70 -26.7 -16
17:55 1012 29.88 841 24.83 -22.6 -8.7 71 -26.5 -15.8
18:00 1012 29.88 841 24.83 -22.7 -8.8 71 -26.6 -15.9
18:05 1012 29.88 841 24.83 -22.5 -8.4 72 -26.2 -15.1
18:10 1012 29.88 841 24.83 -22.5 -8.4 72 -26.2 -15.2
18:15 1012 29.88 841 24.83 -22.5 -8.4 73 -26.1 -15
18:20 1012 29.88 841 24.83 -22.2 -8 73 -25.8 -14.5
18:25 1012 29.88 841 24.83 -21.9 -7.4 71 -25.8 -14.4
18:30 1012 29.88 841 24.83 -21.8 -7.2 72 -25.5 -13.8
18:35 1012 29.88 841 24.83 -22 -7.5 73 -25.6 -14
18:40 1012 29.88 841 24.83 -22 -7.6 73 -25.7 -14.2
18:45 1012 29.88 841 24.83 -22.2 -7.9 74 -25.7 -14.3
18:50 1012 29.88 841 24.83 -22.5 -8.4 73 -26.1 -15
18:55 1012 29.88 841 24.83 -22.6 -8.7 73 -26.1 -15
19:00 1012 29.88 841 24.83 -22.7 -8.8 73 -26.3 -15.3
19:05 1012 29.88 841 24.83 -22.9 -9.2 75 -26.2 -15.1
19:10 1012 29.88 841 24.83 -23 -9.4 76 -26.1 -14.9
19:15 1012 29.88 841 24.83 -23 -9.5 76 -26.2 -15.1
19:20 1012 29.88 841 24.83 -23.1 -9.7 73 -26.7 -16.1
19:25 1012 29.88 841 24.83 -23.4 -10.1 74 -26.7 -16.1
19:30 1012 29.88 841 24.83 -23.4 -10.1 75 -26.7 -16
19:35 1012 29.88 841 24.83 -23.2 -9.8 74 -26.7 -16
19:40 1012 29.88 841 24.83 -23.2 -9.8 73 -26.8 -16.3
19:45 1012 29.88 841 24.83 -23.3 -9.9 73 -26.8 -16.2
19:50 1012 29.88 841 24.83 -23.5 -10.3 75 -26.8 -16.3
19:55 1012 29.88 841 24.83 -23.8 -10.8 75 -27.1 -16.8
20:00 1012 29.88 841 24.83 -23.7 -10.6 74 -27 -16.6
20:05 1012 29.88 841 24.83 -23.6 -10.5 76 -26.8 -16.2
20:10 1012 29.88 841 24.83 -23.7 -10.7 76 -26.9 -16.3
20:15 1012 29.88 841 24.83 -23.8 -10.9 75 -27.1 -16.9
20:20 1012 29.88 841 24.83 -24 -11.2 75 -27.2 -16.9
20:25 1012 29.88 841 24.83 -24.2 -11.6 77 -27.1 -16.8
20:30 1012 29.88 841 24.83 -24.1 -11.4 76 -27.1 -16.9
20:35 1012 29.88 841 24.83 -23.9 -11 76 -27.1 -16.7
20:40 1012 29.88 841 24.83 -23.6 -10.5 74 -27 -16.6
20:45 1012 29.88 841 24.83 -23.9 -11.1 74 -27.3 -17.1
20:50 1012 29.88 841 24.83 -24.3 -11.8 75 -27.6 -17.6
20:55 1012 29.88 841 24.83 -24.7 -12.4 75 -27.9 -18.3
21:00 1012 29.88 841 24.83 -25.1 -13.1 75 -28.3 -18.9
21:05 1012 29.88 841 24.83 -25.4 -13.6 79 -28.1 -18.5
21:10 1012 29.88 841 24.83 -24.9 -12.9 78 -27.7 -17.9
21:15 1012 29.88 841 24.83 -24.4 -11.9 78 -27.3 -17.1
21:20 1012 29.88 841 24.83 -23.9 -11.1 76 -27.1 -16.8
21:25 1012 29.88 841 24.83 -24.1 -11.3 76 -27.1 -16.8
21:30 1012 29.88 841 24.83 -24 -11.2 76 -27.1 -16.8
21:35 1012 29.88 841 24.83 -24 -11.3 76 -27.2 -16.9
21:40 1012 29.88 841 24.83 -24 -11.2 77 -27 -16.7
21:45 1012 29.88 841 24.83 -24 -11.2 76 -27.1 -16.8
21:50 1012 29.88 841 24.83 -24 -11.2 76 -27.2 -16.9
21:55 1012 29.88 841 24.83 -24 -11.3 76 -27.1 -16.9
22:00 1011 29.85 841 24.83 -24.1 -11.5 75 -27.4 -17.3
22:05 1011 29.85 841 24.83 -24.3 -11.7 75 -27.6 -17.7
22:10 1011 29.85 841 24.83 -24.4 -11.9 73 -27.9 -18.3
22:15 1011 29.85 840 24.81 -24.5 -12.1 74 -27.9 -18.2
22:20 1011 29.85 840 24.81 -24.4 -11.9 74 -27.8 -18
22:25 1011 29.85 840 24.81 -24.3 -11.7 74 -27.7 -17.9
22:30 1011 29.85 840 24.81 -24.3 -11.8 75 -27.6 -17.7
22:35 1011 29.85 840 24.81 -24 -11.2 74 -27.4 -17.4
22:40 1011 29.85 840 24.81 -23.8 -10.9 74 -27.2 -16.9
22:45 1011 29.85 840 24.81 -23 -9.5 73 -26.6 -15.9
22:50 1011 29.85 840 24.81 -22.6 -8.6 74 -26 -14.8
22:55 1011 29.85 840 24.81 -22.3 -8.1 73 -26 -14.7
23:00 1011 29.85 840 24.81 -22.3 -8.1 69 -26.5 -15.7
23:05 1011 29.85 840 24.81 -23.2 -9.7 76 -26.4 -15.5
23:10 1011 29.85 840 24.81 -22.9 -9.3 74 -26.3 -15.4
23:15 1011 29.85 840 24.81 -22.9 -9.2 76 -26 -14.8
23:20 1011 29.85 840 24.81 -22.8 -9.1 75 -26.1 -15
23:25 1011 29.85 840 24.81 -23.1 -9.7 75 -26.5 -15.7
23:30 1011 29.85 840 24.81 -23.4 -10 77 -26.3 -15.3
23:35 1011 29.85 840 24.81 -23.1 -9.5 79 -25.7 -14.3
23:40 1011 29.85 840 24.81 -22.7 -8.8 79 -25.3 -13.6
23:45 1011 29.85 840 24.81 -21.8 -7.3 77 -24.8 -12.6
23:50 1011 29.85 840 24.81 -21.4 -6.4 72 -25.1 -13.1
23:55 1011 29.85 840 24.81 -22.2 -7.9 74 -25.7 -14.2
24:00 1011 29.85 840 24.81 -21.9 -7.3 76 -25 -13.1